sensor_id;sensor_type;location;lat;lon;timestamp;pressure;altitude;pressure_sealevel;temperature;humidity
9839;BME280;4958;48.150;11.506;2023-04-10T00:00:44;96279.44;;;8.10;62.23
9839;BME280;4958;48.150;11.506;2023-04-10T00:03:12;96278.88;;;7.89;62.67
9839;BME280;4958;48.150;11.506;2023-04-10T00:05:38;96265.78;;;7.92;62.46
9839;BME280;4958;48.150;11.506;2023-04-10T00:08:11;96276.81;;;8.02;62.06
9839;BME280;4958;48.150;11.506;2023-04-10T00:10:39;96272.22;;;8.06;61.97
9839;BME280;4958;48.150;11.506;2023-04-10T00:13:07;96273.97;;;8.05;61.98
9839;BME280;4958;48.150;11.506;2023-04-10T00:15:37;96274.91;;;8.04;61.63
9839;BME280;4958;48.150;11.506;2023-04-10T00:18:03;96272.63;;;8.01;61.52
9839;BME280;4958;48.150;11.506;2023-04-10T00:20:30;96270.84;;;7.84;61.71
9839;BME280;4958;48.150;11.506;2023-04-10T00:22:56;96264.47;;;7.88;61.55
9839;BME280;4958;48.150;11.506;2023-04-10T00:25:22;96257.66;;;7.96;61.40
9839;BME280;4958;48.150;11.506;2023-04-10T00:27:53;96251.84;;;8.04;61.53
9839;BME280;4958;48.150;11.506;2023-04-10T00:30:22;96249.69;;;8.00;60.92
9839;BME280;4958;48.150;11.506;2023-04-10T00:32:51;96244.97;;;7.95;61.27
9839;BME280;4958;48.150;11.506;2023-04-10T00:35:21;96242.28;;;7.96;61.29
9839;BME280;4958;48.150;11.506;2023-04-10T00:37:54;96237.69;;;8.00;61.13
9839;BME280;4958;48.150;11.506;2023-04-10T00:40:25;96235.81;;;7.92;61.32
9839;BME280;4958;48.150;11.506;2023-04-10T00:42:52;96242.56;;;7.93;61.25
9839;BME280;4958;48.150;11.506;2023-04-10T00:45:19;96235.41;;;7.97;60.82
9839;BME280;4958;48.150;11.506;2023-04-10T00:47:47;96243.31;;;7.86;60.87
9839;BME280;4958;48.150;11.506;2023-04-10T00:50:14;96242.91;;;7.81;61.31
9839;BME280;4958;48.150;11.506;2023-04-10T00:52:40;96234.69;;;7.77;61.86
9839;BME280;4958;48.150;11.506;2023-04-10T00:55:19;96236.16;;;7.52;61.80
9839;BME280;4958;48.150;11.506;2023-04-10T00:57:46;96233.19;;;7.57;62.20
9839;BME280;4958;48.150;11.506;2023-04-10T01:00:16;96233.84;;;7.59;61.82
9839;BME280;4958;48.150;11.506;2023-04-10T01:02:43;96232.34;;;7.66;62.29
9839;BME280;4958;48.150;11.506;2023-04-10T01:05:10;96235.66;;;7.76;62.15
9839;BME280;4958;48.150;11.506;2023-04-10T01:07:50;96228.09;;;7.75;61.59
9839;BME280;4958;48.150;11.506;2023-04-10T01:10:26;96230.09;;;7.81;61.50
9839;BME280;4958;48.150;11.506;2023-04-10T01:12:59;96231.72;;;7.82;61.56
9839;BME280;4958;48.150;11.506;2023-04-10T01:15:41;96230.91;;;7.81;61.71
9839;BME280;4958;48.150;11.506;2023-04-10T01:18:16;96233.59;;;7.80;61.61
9839;BME280;4958;48.150;11.506;2023-04-10T01:20:47;96226.34;;;7.75;61.79
9839;BME280;4958;48.150;11.506;2023-04-10T01:23:45;96227.34;;;7.65;61.67
9839;BME280;4958;48.150;11.506;2023-04-10T01:26:38;96225.34;;;7.58;61.68
9839;BME280;4958;48.150;11.506;2023-04-10T01:29:10;96222.13;;;7.56;61.66
9839;BME280;4958;48.150;11.506;2023-04-10T01:31:51;96229.00;;;7.56;61.96
9839;BME280;4958;48.150;11.506;2023-04-10T01:34:23;96218.94;;;7.45;62.29
9839;BME280;4958;48.150;11.506;2023-04-10T01:36:57;96217.75;;;7.39;62.65
9839;BME280;4958;48.150;11.506;2023-04-10T01:39:38;96216.19;;;7.28;62.32
9839;BME280;4958;48.150;11.506;2023-04-10T01:42:08;96215.50;;;6.89;63.69
9839;BME280;4958;48.150;11.506;2023-04-10T01:44:43;96214.97;;;6.57;64.64
9839;BME280;4958;48.150;11.506;2023-04-10T01:47:15;96208.91;;;6.68;64.38
9839;BME280;4958;48.150;11.506;2023-04-10T01:49:48;96211.19;;;6.80;63.91
9839;BME280;4958;48.150;11.506;2023-04-10T01:52:20;96206.16;;;6.98;63.54
9839;BME280;4958;48.150;11.506;2023-04-10T01:54:47;96208.69;;;7.08;63.71
9839;BME280;4958;48.150;11.506;2023-04-10T01:57:14;96206.00;;;7.09;63.05
9839;BME280;4958;48.150;11.506;2023-04-10T01:59:46;96198.59;;;6.97;63.22
9839;BME280;4958;48.150;11.506;2023-04-10T02:02:13;96203.72;;;7.06;63.17
9839;BME280;4958;48.150;11.506;2023-04-10T02:04:40;96193.56;;;7.14;62.60
9839;BME280;4958;48.150;11.506;2023-04-10T02:07:10;96204.59;;;7.24;62.34
9839;BME280;4958;48.150;11.506;2023-04-10T02:09:53;96203.66;;;7.25;62.84
9839;BME280;4958;48.150;11.506;2023-04-10T02:12:29;96202.03;;;7.24;62.77
9839;BME280;4958;48.150;11.506;2023-04-10T02:14:59;96201.69;;;7.10;62.74
9839;BME280;4958;48.150;11.506;2023-04-10T02:17:28;96206.56;;;7.03;63.11
9839;BME280;4958;48.150;11.506;2023-04-10T02:19:55;96209.19;;;6.65;63.86
9839;BME280;4958;48.150;11.506;2023-04-10T02:22:23;96200.97;;;6.71;63.95
9839;BME280;4958;48.150;11.506;2023-04-10T02:24:51;96201.91;;;6.70;63.89
9839;BME280;4958;48.150;11.506;2023-04-10T02:27:28;96199.09;;;6.63;63.51
9839;BME280;4958;48.150;11.506;2023-04-10T02:29:55;96196.25;;;6.66;63.53
9839;BME280;4958;48.150;11.506;2023-04-10T02:32:23;96202.59;;;6.62;63.53
9839;BME280;4958;48.150;11.506;2023-04-10T02:34:49;96202.84;;;6.59;63.51
9839;BME280;4958;48.150;11.506;2023-04-10T02:37:16;96200.03;;;6.62;63.37
9839;BME280;4958;48.150;11.506;2023-04-10T02:39:42;96203.81;;;6.68;63.67
9839;BME280;4958;48.150;11.506;2023-04-10T02:42:14;96207.81;;;6.80;63.50
9839;BME280;4958;48.150;11.506;2023-04-10T02:44:46;96211.72;;;6.84;62.92
9839;BME280;4958;48.150;11.506;2023-04-10T02:47:13;96208.22;;;6.85;62.67
9839;BME280;4958;48.150;11.506;2023-04-10T02:49:44;96213.34;;;6.75;62.79
9839;BME280;4958;48.150;11.506;2023-04-10T02:52:16;96210.66;;;6.67;62.77
9839;BME280;4958;48.150;11.506;2023-04-10T02:54:43;96221.97;;;6.55;63.05
9839;BME280;4958;48.150;11.506;2023-04-10T02:57:12;96212.16;;;6.41;63.88
9839;BME280;4958;48.150;11.506;2023-04-10T02:59:41;96206.50;;;6.47;63.93
9839;BME280;4958;48.150;11.506;2023-04-10T03:02:08;96208.94;;;6.39;63.48
9839;BME280;4958;48.150;11.506;2023-04-10T03:04:35;96204.25;;;6.34;63.59
9839;BME280;4958;48.150;11.506;2023-04-10T03:07:06;96207.31;;;6.38;63.72
9839;BME280;4958;48.150;11.506;2023-04-10T03:09:33;96208.25;;;6.08;64.67
9839;BME280;4958;48.150;11.506;2023-04-10T03:12:02;96201.53;;;6.07;65.14
9839;BME280;4958;48.150;11.506;2023-04-10T03:14:31;96206.50;;;6.08;64.79
9839;BME280;4958;48.150;11.506;2023-04-10T03:16:57;96201.25;;;6.10;65.16
9839;BME280;4958;48.150;11.506;2023-04-10T03:19:24;96200.31;;;6.20;64.25
9839;BME280;4958;48.150;11.506;2023-04-10T03:21:54;96195.75;;;6.24;63.87
9839;BME280;4958;48.150;11.506;2023-04-10T03:24:24;96200.59;;;6.17;64.37
9839;BME280;4958;48.150;11.506;2023-04-10T03:26:51;96198.31;;;6.14;64.23
9839;BME280;4958;48.150;11.506;2023-04-10T03:29:17;96199.94;;;6.15;64.20
9839;BME280;4958;48.150;11.506;2023-04-10T03:31:44;96199.09;;;6.05;64.32
9839;BME280;4958;48.150;11.506;2023-04-10T03:34:11;96203.28;;;6.06;64.41
9839;BME280;4958;48.150;11.506;2023-04-10T03:36:37;96205.84;;;6.06;64.24
9839;BME280;4958;48.150;11.506;2023-04-10T03:39:04;96203.69;;;6.11;64.11
9839;BME280;4958;48.150;11.506;2023-04-10T03:41:33;96202.63;;;6.14;64.32
9839;BME280;4958;48.150;11.506;2023-04-10T03:44:01;96202.34;;;6.17;64.15
9839;BME280;4958;48.150;11.506;2023-04-10T03:46:28;96203.81;;;6.10;64.55
9839;BME280;4958;48.150;11.506;2023-04-10T03:48:55;96203.00;;;6.00;64.84
9839;BME280;4958;48.150;11.506;2023-04-10T03:51:22;96205.44;;;6.11;64.41
9839;BME280;4958;48.150;11.506;2023-04-10T03:53:53;96210.16;;;6.15;64.40
9839;BME280;4958;48.150;11.506;2023-04-10T03:56:20;96207.59;;;6.15;64.25
9839;BME280;4958;48.150;11.506;2023-04-10T03:58:52;96213.38;;;6.08;63.98
9839;BME280;4958;48.150;11.506;2023-04-10T04:01:21;96212.53;;;5.98;64.40
9839;BME280;4958;48.150;11.506;2023-04-10T04:03:48;96218.56;;;5.87;64.99
9839;BME280;4958;48.150;11.506;2023-04-10T04:06:14;96217.38;;;5.91;64.99
9839;BME280;4958;48.150;11.506;2023-04-10T04:08:41;96215.44;;;5.74;65.28
9839;BME280;4958;48.150;11.506;2023-04-10T04:11:08;96214.59;;;5.64;66.06
9839;BME280;4958;48.150;11.506;2023-04-10T04:13:38;96208.78;;;5.52;66.48
9839;BME280;4958;48.150;11.506;2023-04-10T04:16:11;96205.13;;;5.45;67.21
9839;BME280;4958;48.150;11.506;2023-04-10T04:18:41;96204.06;;;5.38;67.52
9839;BME280;4958;48.150;11.506;2023-04-10T04:21:07;96205.78;;;5.37;67.66
9839;BME280;4958;48.150;11.506;2023-04-10T04:23:36;96204.94;;;5.27;67.94
9839;BME280;4958;48.150;11.506;2023-04-10T04:26:03;96204.69;;;5.30;67.92
9839;BME280;4958;48.150;11.506;2023-04-10T04:28:32;96210.38;;;5.13;69.33
9839;BME280;4958;48.150;11.506;2023-04-10T04:31:06;96210.97;;;4.96;70.21
9839;BME280;4958;48.150;11.506;2023-04-10T04:33:34;96215.84;;;4.99;70.14
9839;BME280;4958;48.150;11.506;2023-04-10T04:36:00;96218.38;;;4.99;69.95
9839;BME280;4958;48.150;11.506;2023-04-10T04:38:29;96219.22;;;5.09;70.07
9839;BME280;4958;48.150;11.506;2023-04-10T04:40:55;96221.59;;;5.01;70.45
9839;BME280;4958;48.150;11.506;2023-04-10T04:43:22;96223.78;;;5.05;74.51
9839;BME280;4958;48.150;11.506;2023-04-10T04:45:56;96237.03;;;5.91;76.82
9839;BME280;4958;48.150;11.506;2023-04-10T04:48:34;96233.16;;;6.64;73.73
9839;BME280;4958;48.150;11.506;2023-04-10T04:51:07;96229.66;;;6.55;66.26
9839;BME280;4958;48.150;11.506;2023-04-10T04:53:34;96234.94;;;6.34;66.18
9839;BME280;4958;48.150;11.506;2023-04-10T04:56:09;96220.78;;;6.20;66.42
9839;BME280;4958;48.150;11.506;2023-04-10T04:58:35;96225.63;;;6.14;66.73
9839;BME280;4958;48.150;11.506;2023-04-10T05:01:02;96227.06;;;5.97;67.07
9839;BME280;4958;48.150;11.506;2023-04-10T05:03:31;96222.75;;;5.98;66.96
9839;BME280;4958;48.150;11.506;2023-04-10T05:06:03;96228.09;;;5.85;67.50
9839;BME280;4958;48.150;11.506;2023-04-10T05:08:30;96231.03;;;5.80;67.73
9839;BME280;4958;48.150;11.506;2023-04-10T05:10:56;96229.28;;;5.81;67.45
9839;BME280;4958;48.150;11.506;2023-04-10T05:13:23;96234.53;;;5.70;68.02
9839;BME280;4958;48.150;11.506;2023-04-10T05:15:54;96236.94;;;5.71;68.24
9839;BME280;4958;48.150;11.506;2023-04-10T05:18:26;96229.00;;;5.65;68.38
9839;BME280;4958;48.150;11.506;2023-04-10T05:21:12;96229.91;;;5.54;68.75
9839;BME280;4958;48.150;11.506;2023-04-10T05:23:43;96219.09;;;5.41;69.15
9839;BME280;4958;48.150;11.506;2023-04-10T05:26:15;96217.06;;;5.35;69.46
9839;BME280;4958;48.150;11.506;2023-04-10T05:28:48;96216.25;;;5.34;69.95
9839;BME280;4958;48.150;11.506;2023-04-10T05:31:16;96223.50;;;5.39;69.61
9839;BME280;4958;48.150;11.506;2023-04-10T05:33:44;96227.09;;;5.27;70.13
9839;BME280;4958;48.150;11.506;2023-04-10T05:36:31;96227.56;;;5.41;69.76
9839;BME280;4958;48.150;11.506;2023-04-10T05:38:58;96235.09;;;5.43;69.86
9839;BME280;4958;48.150;11.506;2023-04-10T05:41:25;96236.19;;;5.50;69.83
9839;BME280;4958;48.150;11.506;2023-04-10T05:43:57;96237.94;;;5.49;69.47
9839;BME280;4958;48.150;11.506;2023-04-10T05:46:28;96236.72;;;5.44;69.55
9839;BME280;4958;48.150;11.506;2023-04-10T05:48:56;96233.22;;;5.45;69.54
9839;BME280;4958;48.150;11.506;2023-04-10T05:51:27;96241.47;;;5.58;69.39
9839;BME280;4958;48.150;11.506;2023-04-10T05:54:02;96244.44;;;5.63;69.44
9839;BME280;4958;48.150;11.506;2023-04-10T05:56:31;96247.84;;;5.73;68.75
9839;BME280;4958;48.150;11.506;2023-04-10T05:59:02;96252.97;;;5.73;68.62
9839;BME280;4958;48.150;11.506;2023-04-10T06:01:46;96255.25;;;5.76;68.75
9839;BME280;4958;48.150;11.506;2023-04-10T06:04:13;96264.94;;;5.73;68.86
9839;BME280;4958;48.150;11.506;2023-04-10T06:06:43;96265.56;;;5.96;68.11
9839;BME280;4958;48.150;11.506;2023-04-10T06:09:09;96262.22;;;6.14;67.21
9839;BME280;4958;48.150;11.506;2023-04-10T06:11:41;96260.34;;;6.26;66.92
9839;BME280;4958;48.150;11.506;2023-04-10T06:14:08;96261.31;;;6.44;66.59
9839;BME280;4958;48.150;11.506;2023-04-10T06:16:40;96267.50;;;6.42;66.41
9839;BME280;4958;48.150;11.506;2023-04-10T06:19:07;96260.78;;;6.50;66.30
9839;BME280;4958;48.150;11.506;2023-04-10T06:21:34;96266.97;;;6.67;65.67
9839;BME280;4958;48.150;11.506;2023-04-10T06:24:03;96261.28;;;6.83;65.61
9839;BME280;4958;48.150;11.506;2023-04-10T06:26:39;96262.91;;;6.84;65.80
9839;BME280;4958;48.150;11.506;2023-04-10T06:29:12;96252.66;;;6.84;65.98
9839;BME280;4958;48.150;11.506;2023-04-10T06:31:42;96253.22;;;6.87;65.07
9839;BME280;4958;48.150;11.506;2023-04-10T06:34:09;96252.13;;;6.80;65.28
9839;BME280;4958;48.150;11.506;2023-04-10T06:36:38;96242.56;;;6.92;64.45
9839;BME280;4958;48.150;11.506;2023-04-10T06:39:06;96247.50;;;6.93;64.42
9839;BME280;4958;48.150;11.506;2023-04-10T06:41:33;96234.84;;;7.02;64.59
9839;BME280;4958;48.150;11.506;2023-04-10T06:44:10;96236.56;;;7.20;64.53
9839;BME280;4958;48.150;11.506;2023-04-10T06:46:42;96226.94;;;7.32;63.56
9839;BME280;4958;48.150;11.506;2023-04-10T06:49:09;96231.28;;;7.59;63.05
9839;BME280;4958;48.150;11.506;2023-04-10T06:51:35;96231.47;;;7.75;62.64
9839;BME280;4958;48.150;11.506;2023-04-10T06:56:48;96223.94;;;7.91;61.10
9839;BME280;4958;48.150;11.506;2023-04-10T06:59:19;96221.78;;;7.96;60.84
9839;BME280;4958;48.150;11.506;2023-04-10T07:01:47;96224.72;;;8.19;60.54
9839;BME280;4958;48.150;11.506;2023-04-10T07:04:16;96215.34;;;8.28;59.64
9839;BME280;4958;48.150;11.506;2023-04-10T07:06:43;96220.28;;;8.39;59.22
9839;BME280;4958;48.150;11.506;2023-04-10T07:09:11;96225.19;;;8.50;59.92
9839;BME280;4958;48.150;11.506;2023-04-10T07:11:38;96217.44;;;8.86;59.57
9839;BME280;4958;48.150;11.506;2023-04-10T07:14:04;96218.44;;;8.93;58.16
9839;BME280;4958;48.150;11.506;2023-04-10T07:16:31;96220.81;;;9.12;57.68
9839;BME280;4958;48.150;11.506;2023-04-10T07:18:57;96216.13;;;9.33;55.80
9839;BME280;4958;48.150;11.506;2023-04-10T07:21:24;96213.81;;;9.56;56.59
9839;BME280;4958;48.150;11.506;2023-04-10T07:23:51;96215.13;;;9.60;54.96
9839;BME280;4958;48.150;11.506;2023-04-10T07:26:19;96222.75;;;9.78;54.54
9839;BME280;4958;48.150;11.506;2023-04-10T07:28:46;96221.28;;;9.76;54.09
9839;BME280;4958;48.150;11.506;2023-04-10T07:31:15;96227.31;;;10.00;53.84
9839;BME280;4958;48.150;11.506;2023-04-10T07:33:42;96216.53;;;10.05;53.02
9839;BME280;4958;48.150;11.506;2023-04-10T07:36:11;96215.31;;;10.25;53.44
9839;BME280;4958;48.150;11.506;2023-04-10T07:38:38;96214.53;;;10.41;52.95
9839;BME280;4958;48.150;11.506;2023-04-10T07:41:07;96216.81;;;10.36;52.80
9839;BME280;4958;48.150;11.506;2023-04-10T07:43:35;96223.03;;;10.25;52.82
9839;BME280;4958;48.150;11.506;2023-04-10T07:46:07;96218.41;;;10.37;52.55
9839;BME280;4958;48.150;11.506;2023-04-10T07:48:33;96217.94;;;10.58;51.99
9839;BME280;4958;48.150;11.506;2023-04-10T07:51:19;96209.88;;;10.85;51.94
9839;BME280;4958;48.150;11.506;2023-04-10T07:53:46;96210.13;;;11.23;51.53
9839;BME280;4958;48.150;11.506;2023-04-10T07:56:16;96217.22;;;11.21;50.12
9839;BME280;4958;48.150;11.506;2023-04-10T07:58:46;96210.97;;;11.07;49.64
9839;BME280;4958;48.150;11.506;2023-04-10T08:01:15;96218.34;;;11.18;49.58
9839;BME280;4958;48.150;11.506;2023-04-10T08:03:45;96205.06;;;11.46;49.52
9839;BME280;4958;48.150;11.506;2023-04-10T08:06:13;96209.06;;;11.56;48.60
9839;BME280;4958;48.150;11.506;2023-04-10T08:08:40;96194.75;;;11.46;48.54
9839;BME280;4958;48.150;11.506;2023-04-10T08:11:22;96204.91;;;11.47;48.43
9839;BME280;4958;48.150;11.506;2023-04-10T08:13:50;96199.84;;;11.62;48.88
9839;BME280;4958;48.150;11.506;2023-04-10T08:16:17;96200.31;;;11.65;47.76
9839;BME280;4958;48.150;11.506;2023-04-10T08:18:44;96197.88;;;11.80;47.66
9839;BME280;4958;48.150;11.506;2023-04-10T08:21:13;96203.06;;;12.03;46.87
9839;BME280;4958;48.150;11.506;2023-04-10T08:23:49;96197.63;;;12.21;46.45
9839;BME280;4958;48.150;11.506;2023-04-10T08:26:16;96197.94;;;12.26;46.73
9839;BME280;4958;48.150;11.506;2023-04-10T08:28:45;96202.41;;;12.32;45.76
9839;BME280;4958;48.150;11.506;2023-04-10T08:31:17;96205.41;;;12.13;45.71
9839;BME280;4958;48.150;11.506;2023-04-10T08:33:48;96194.13;;;12.36;47.12
9839;BME280;4958;48.150;11.506;2023-04-10T08:36:16;96208.03;;;12.58;46.13
9839;BME280;4958;48.150;11.506;2023-04-10T08:38:47;96192.00;;;12.63;46.30
9839;BME280;4958;48.150;11.506;2023-04-10T08:41:17;96191.16;;;12.48;45.45
9839;BME280;4958;48.150;11.506;2023-04-10T08:46:52;96205.63;;;13.09;45.28
9839;BME280;4958;48.150;11.506;2023-04-10T08:49:23;96195.28;;;13.09;44.39
9839;BME280;4958;48.150;11.506;2023-04-10T08:51:59;96192.59;;;13.40;44.40
9839;BME280;4958;48.150;11.506;2023-04-10T08:54:30;96191.56;;;13.70;44.82
9839;BME280;4958;48.150;11.506;2023-04-10T08:57:09;96190.31;;;13.81;43.59
9839;BME280;4958;48.150;11.506;2023-04-10T08:59:43;96185.38;;;14.01;43.12
9839;BME280;4958;48.150;11.506;2023-04-10T09:02:11;96192.31;;;14.36;42.76
9839;BME280;4958;48.150;11.506;2023-04-10T09:04:48;96182.19;;;14.20;41.94
9839;BME280;4958;48.150;11.506;2023-04-10T09:07:25;96183.28;;;14.11;41.92
9839;BME280;4958;48.150;11.506;2023-04-10T09:10:01;96188.44;;;14.11;42.76
9839;BME280;4958;48.150;11.506;2023-04-10T09:12:28;96182.03;;;14.43;42.20
9839;BME280;4958;48.150;11.506;2023-04-10T09:14:55;96188.50;;;14.75;41.25
9839;BME280;4958;48.150;11.506;2023-04-10T09:17:23;96185.75;;;15.11;39.99
9839;BME280;4958;48.150;11.506;2023-04-10T09:19:54;96174.72;;;15.02;40.78
9839;BME280;4958;48.150;11.506;2023-04-10T09:22:28;96179.09;;;15.02;39.38
9839;BME280;4958;48.150;11.506;2023-04-10T09:24:59;96171.84;;;14.91;39.52
9839;BME280;4958;48.150;11.506;2023-04-10T09:27:27;96169.69;;;14.94;39.64
9839;BME280;4958;48.150;11.506;2023-04-10T09:29:55;96169.75;;;15.01;38.58
9839;BME280;4958;48.150;11.506;2023-04-10T09:32:40;96175.47;;;14.47;38.88
9839;BME280;4958;48.150;11.506;2023-04-10T09:35:14;96167.19;;;14.37;39.42
9839;BME280;4958;48.150;11.506;2023-04-10T09:37:43;96160.25;;;14.59;40.01
9839;BME280;4958;48.150;11.506;2023-04-10T09:40:19;96148.94;;;14.94;40.02
9839;BME280;4958;48.150;11.506;2023-04-10T09:42:46;96142.88;;;15.15;39.60
9839;BME280;4958;48.150;11.506;2023-04-10T09:45:12;96138.63;;;15.42;39.20
9839;BME280;4958;48.150;11.506;2023-04-10T09:48:00;96135.59;;;15.32;39.00
9839;BME280;4958;48.150;11.506;2023-04-10T09:50:33;96127.63;;;15.33;39.40
9839;BME280;4958;48.150;11.506;2023-04-10T09:53:01;96132.09;;;15.52;39.54
9839;BME280;4958;48.150;11.506;2023-04-10T09:55:30;96128.00;;;15.78;38.26
9839;BME280;4958;48.150;11.506;2023-04-10T09:57:59;96133.78;;;15.67;38.26
9839;BME280;4958;48.150;11.506;2023-04-10T10:00:26;96123.47;;;15.39;36.88
9839;BME280;4958;48.150;11.506;2023-04-10T10:02:59;96128.19;;;15.29;37.43
9839;BME280;4958;48.150;11.506;2023-04-10T10:05:26;96111.84;;;15.35;37.40
9839;BME280;4958;48.150;11.506;2023-04-10T10:07:59;96117.41;;;15.73;38.02
9839;BME280;4958;48.150;11.506;2023-04-10T10:10:25;96118.78;;;15.62;37.18
9839;BME280;4958;48.150;11.506;2023-04-10T10:12:58;96110.00;;;15.63;37.78
9839;BME280;4958;48.150;11.506;2023-04-10T10:15:35;96106.78;;;15.61;37.96
9839;BME280;4958;48.150;11.506;2023-04-10T10:18:12;96109.47;;;15.33;37.37
9839;BME280;4958;48.150;11.506;2023-04-10T10:20:49;96104.34;;;15.53;37.68
9839;BME280;4958;48.150;11.506;2023-04-10T10:23:16;96100.31;;;15.44;37.18
9839;BME280;4958;48.150;11.506;2023-04-10T10:25:48;96089.03;;;15.65;36.70
9839;BME280;4958;48.150;11.506;2023-04-10T10:28:17;96089.84;;;15.72;37.39
9839;BME280;4958;48.150;11.506;2023-04-10T10:30:50;96089.72;;;15.45;36.01
9839;BME280;4958;48.150;11.506;2023-04-10T10:33:29;96085.38;;;15.52;36.90
9839;BME280;4958;48.150;11.506;2023-04-10T10:35:58;96082.50;;;16.02;36.68
9839;BME280;4958;48.150;11.506;2023-04-10T10:38:25;96081.34;;;16.37;36.07
9839;BME280;4958;48.150;11.506;2023-04-10T10:41:00;96075.94;;;16.19;35.65
9839;BME280;4958;48.150;11.506;2023-04-10T10:43:35;96078.53;;;16.19;34.95
9839;BME280;4958;48.150;11.506;2023-04-10T10:46:14;96074.34;;;16.05;35.37
9839;BME280;4958;48.150;11.506;2023-04-10T10:48:55;96067.75;;;16.15;35.17
9839;BME280;4958;48.150;11.506;2023-04-10T10:51:42;96061.16;;;16.46;35.29
9839;BME280;4958;48.150;11.506;2023-04-10T10:54:29;96058.13;;;16.62;34.91
9839;BME280;4958;48.150;11.506;2023-04-10T10:57:02;96053.56;;;16.44;34.72
9839;BME280;4958;48.150;11.506;2023-04-10T10:59:55;96049.16;;;16.25;34.62
9839;BME280;4958;48.150;11.506;2023-04-10T11:02:28;96048.72;;;16.61;35.33
9839;BME280;4958;48.150;11.506;2023-04-10T11:04:59;96033.91;;;16.75;33.82
9839;BME280;4958;48.150;11.506;2023-04-10T11:08:07;96031.31;;;16.75;34.35
9839;BME280;4958;48.150;11.506;2023-04-10T11:11:01;96032.13;;;16.62;34.12
9839;BME280;4958;48.150;11.506;2023-04-10T11:13:29;96025.16;;;16.36;33.89
9839;BME280;4958;48.150;11.506;2023-04-10T11:15:59;96027.19;;;16.34;33.60
9839;BME280;4958;48.150;11.506;2023-04-10T11:19:00;96016.56;;;16.42;33.20
9839;BME280;4958;48.150;11.506;2023-04-10T11:21:30;96004.56;;;16.41;32.85
9839;BME280;4958;48.150;11.506;2023-04-10T11:24:03;96009.56;;;16.43;33.06
9839;BME280;4958;48.150;11.506;2023-04-10T11:26:39;96011.53;;;16.61;34.56
9839;BME280;4958;48.150;11.506;2023-04-10T11:29:33;96000.13;;;16.55;32.36
9839;BME280;4958;48.150;11.506;2023-04-10T11:32:01;96008.78;;;16.22;33.09
9839;BME280;4958;48.150;11.506;2023-04-10T11:34:44;96000.38;;;16.40;33.63
9839;BME280;4958;48.150;11.506;2023-04-10T11:37:29;96001.16;;;16.67;33.46
9839;BME280;4958;48.150;11.506;2023-04-10T11:40:12;95993.34;;;16.67;33.81
9839;BME280;4958;48.150;11.506;2023-04-10T11:43:15;95985.22;;;17.08;32.61
9839;BME280;4958;48.150;11.506;2023-04-10T11:46:08;95995.56;;;16.70;31.40
9839;BME280;4958;48.150;11.506;2023-04-10T11:48:52;95984.72;;;16.60;30.92
9839;BME280;4958;48.150;11.506;2023-04-10T11:51:19;95980.19;;;16.42;31.11
9839;BME280;4958;48.150;11.506;2023-04-10T11:54:21;95976.00;;;16.35;30.18
9839;BME280;4958;48.150;11.506;2023-04-10T11:57:10;95975.22;;;16.34;31.12
9839;BME280;4958;48.150;11.506;2023-04-10T11:59:52;95969.19;;;16.47;31.26
9839;BME280;4958;48.150;11.506;2023-04-10T12:02:21;95961.41;;;16.34;31.20
9839;BME280;4958;48.150;11.506;2023-04-10T12:04:58;95967.97;;;16.43;32.05
9839;BME280;4958;48.150;11.506;2023-04-10T12:07:25;95962.22;;;16.34;32.06
9839;BME280;4958;48.150;11.506;2023-04-10T12:10:04;95965.53;;;16.61;32.67
9839;BME280;4958;48.150;11.506;2023-04-10T12:12:34;95967.94;;;16.56;31.09
9839;BME280;4958;48.150;11.506;2023-04-10T12:15:27;95962.78;;;16.43;30.26
9839;BME280;4958;48.150;11.506;2023-04-10T12:18:04;95964.53;;;16.55;30.28
9839;BME280;4958;48.150;11.506;2023-04-10T12:23:22;95963.56;;;16.63;30.46
9839;BME280;4958;48.150;11.506;2023-04-10T12:26:13;95966.53;;;16.73;30.13
9839;BME280;4958;48.150;11.506;2023-04-10T12:28:50;95966.56;;;16.67;30.86
9839;BME280;4958;48.150;11.506;2023-04-10T12:31:35;95961.47;;;16.91;30.95
9839;BME280;4958;48.150;11.506;2023-04-10T12:34:18;95959.88;;;16.84;31.51
9839;BME280;4958;48.150;11.506;2023-04-10T12:36:53;95958.47;;;16.88;31.32
9839;BME280;4958;48.150;11.506;2023-04-10T12:39:23;95960.03;;;16.96;30.76
9839;BME280;4958;48.150;11.506;2023-04-10T12:42:12;95953.72;;;17.16;31.49
9839;BME280;4958;48.150;11.506;2023-04-10T12:44:57;95945.44;;;17.33;31.24
9839;BME280;4958;48.150;11.506;2023-04-10T12:47:26;95943.09;;;17.24;31.30
9839;BME280;4958;48.150;11.506;2023-04-10T12:50:06;95940.47;;;17.56;31.27
9839;BME280;4958;48.150;11.506;2023-04-10T12:52:35;95934.38;;;17.44;30.84
9839;BME280;4958;48.150;11.506;2023-04-10T12:55:09;95933.34;;;17.45;30.32
9839;BME280;4958;48.150;11.506;2023-04-10T12:57:38;95929.84;;;17.64;30.76
9839;BME280;4958;48.150;11.506;2023-04-10T13:00:08;95921.03;;;17.58;29.63
9839;BME280;4958;48.150;11.506;2023-04-10T13:02:40;95923.72;;;17.77;28.10
9839;BME280;4958;48.150;11.506;2023-04-10T13:05:08;95921.72;;;17.79;30.05
9839;BME280;4958;48.150;11.506;2023-04-10T13:07:45;95923.09;;;17.81;30.67
9839;BME280;4958;48.150;11.506;2023-04-10T13:10:24;95922.22;;;17.63;30.96
9839;BME280;4958;48.150;11.506;2023-04-10T13:12:55;95921.72;;;17.47;32.21
9839;BME280;4958;48.150;11.506;2023-04-10T13:15:21;95911.28;;;17.79;32.15
9839;BME280;4958;48.150;11.506;2023-04-10T13:17:54;95900.19;;;17.65;30.84
9839;BME280;4958;48.150;11.506;2023-04-10T13:20:47;95911.13;;;17.74;32.47
9839;BME280;4958;48.150;11.506;2023-04-10T13:24:01;95898.97;;;17.68;31.49
9839;BME280;4958;48.150;11.506;2023-04-10T13:44:41;95863.25;;;17.93;32.73
9839;BME280;4958;48.150;11.506;2023-04-10T13:47:07;95857.59;;;17.78;30.33
9839;BME280;4958;48.150;11.506;2023-04-10T13:56:25;95850.91;;;17.64;30.10
9839;BME280;4958;48.150;11.506;2023-04-10T14:02:27;95855.81;;;17.78;30.09
9839;BME280;4958;48.150;11.506;2023-04-10T14:05:27;95854.00;;;17.97;30.08
9839;BME280;4958;48.150;11.506;2023-04-10T14:10:54;95843.31;;;18.05;29.87
9839;BME280;4958;48.150;11.506;2023-04-10T14:13:39;95832.97;;;17.99;29.62
9839;BME280;4958;48.150;11.506;2023-04-10T14:16:40;95826.81;;;18.11;29.91
9839;BME280;4958;48.150;11.506;2023-04-10T14:19:40;95819.44;;;18.26;29.88
9839;BME280;4958;48.150;11.506;2023-04-10T14:28:55;95816.66;;;17.67;30.28
9839;BME280;4958;48.150;11.506;2023-04-10T14:31:50;95807.09;;;17.54;29.90